Time;durP1;ratioP1;P1;durP2;ratioP2;P2;SDS_P1;SDS_P2;PMS_P1;PMS_P2;Temp;Humidity;BMP_temperature;BMP_pressure;BME280_temperature;BME280_humidity;BME280_pressure;Samples;Min_cycle;Max_cycle;Signal;HPM_P1;HPM_P2
2021/08/29 00:01:20;;;;;;;9.82;5.20;;;;;;;28.56;59.64;100667.97;5077611;27;65490;-38
2021/08/29 00:03:51;;;;;;;5.57;4.68;;;;;;;28.59;61.00;100672.94;5068616;27;69905;-37
2021/08/29 00:06:22;;;;;;;7.70;6.93;;;;;;;28.66;61.53;100682.66;5070662;27;66155;-38
2021/08/29 00:08:53;;;;;;;7.68;6.80;;;;;;;28.70;61.80;100681.22;5079377;27;70602;-37
2021/08/29 00:11:24;;;;;;;8.35;7.55;;;;;;;28.66;63.12;100687.22;5076968;27;65543;-37
2021/08/29 00:13:55;;;;;;;7.95;7.25;;;;;;;28.73;64.04;100690.75;5068342;27;70121;-38
2021/08/29 00:16:26;;;;;;;10.85;8.38;;;;;;;28.83;65.04;100699.25;5073176;27;65315;-37
2021/08/29 00:18:57;;;;;;;12.77;9.02;;;;;;;28.86;65.94;100704.25;5077463;27;70287;-37
2021/08/29 00:21:29;;;;;;;9.80;9.00;;;;;;;28.88;66.11;100707.53;5075607;27;66076;-37
2021/08/29 00:24:00;;;;;;;9.77;8.80;;;;;;;28.90;66.36;100708.16;5076436;27;70293;-38
2021/08/29 00:26:31;;;;;;;20.77;9.50;;;;;;;28.89;66.68;100711.91;5076650;27;66777;-38
2021/08/29 00:29:12;;;;;;;12.10;9.50;;;;;;;28.95;67.74;100712.94;5075874;27;70347;-37
2021/08/29 00:31:43;;;;;;;18.90;12.13;;;;;;;28.94;68.09;100722.88;5065034;27;66277;-38
2021/08/29 00:34:14;;;;;;;19.52;11.27;;;;;;;28.97;67.92;100732.44;5068971;28;70048;-39
2021/08/29 00:36:45;;;;;;;22.70;13.15;;;;;;;29.00;68.69;100740.13;5074735;27;65603;-38
2021/08/29 00:39:17;;;;;;;14.50;12.80;;;;;;;29.05;69.09;100736.81;5069223;27;70028;-38
2021/08/29 00:41:51;;;;;;;18.30;13.30;;;;;;;29.08;69.94;100741.81;5072718;27;65514;-38
2021/08/29 00:44:39;;;;;;;16.77;14.75;;;;;;;29.13;70.09;100728.50;5062955;27;69909;-38
2021/08/29 00:47:10;;;;;;;22.13;15.23;;;;;;;29.14;71.12;100735.56;5081169;27;66257;-38
2021/08/29 00:49:42;;;;;;;16.58;14.55;;;;;;;29.15;70.49;100738.06;5057624;27;69257;-38
2021/08/29 00:52:17;;;;;;;24.42;17.02;;;;;;;29.16;71.72;100733.47;5076541;27;65955;-38
2021/08/29 00:54:48;;;;;;;17.42;15.48;;;;;;;29.25;71.51;100743.00;5068695;27;71142;-38
2021/08/29 00:57:19;;;;;;;23.10;16.67;;;;;;;29.29;71.08;100754.22;5065570;27;65438;-38
2021/08/29 00:59:54;;;;;;;22.13;15.82;;;;;;;29.30;71.71;100751.28;5074461;27;71030;-38
2021/08/29 01:02:27;;;;;;;17.27;15.63;;;;;;;29.17;71.43;100740.56;5061831;27;66212;-38
2021/08/29 01:05:10;;;;;;;19.20;15.10;;;;;;;29.04;72.03;100716.28;5084540;27;70024;-38
2021/08/29 01:08:05;;;;;;;22.60;16.77;;;;;;;29.32;72.37;100760.03;5056282;27;64983;-38
2021/08/29 01:10:43;;;;;;;20.27;17.48;;;;;;;29.27;71.86;100750.91;5072586;27;70137;-38
2021/08/29 01:13:23;;;;;;;19.95;16.42;;;;;;;29.42;72.03;100769.53;5066883;27;66276;-38
2021/08/29 01:15:57;;;;;;;19.70;15.77;;;;;;;29.41;71.87;100766.03;5073024;27;69970;-38
2021/08/29 01:18:31;;;;;;;17.98;16.27;;;;;;;29.45;71.82;100763.72;5058282;28;66881;-38
2021/08/29 01:21:15;;;;;;;17.83;15.93;;;;;;;29.42;71.83;100764.16;5073296;27;69199;-37
2021/08/29 01:23:51;;;;;;;18.42;14.77;;;;;;;29.45;71.58;100774.53;5064660;28;67332;-38
2021/08/29 01:26:43;;;;;;;16.88;15.23;;;;;;;29.48;72.15;100779.53;5070444;27;70476;-39
2021/08/29 01:29:18;;;;;;;16.83;14.80;;;;;;;29.50;72.06;100793.63;5069261;27;66607;-37
2021/08/29 01:31:49;;;;;;;16.30;14.68;;;;;;;29.50;72.16;100790.94;5076409;27;69592;-40
2021/08/29 01:34:21;;;;;;;17.30;15.90;;;;;;;29.50;72.27;100788.22;5063541;27;67216;-37
2021/08/29 01:37:12;;;;;;;17.77;14.80;;;;;;;29.53;72.01;100794.06;5070710;27;70009;-37
2021/08/29 01:39:46;;;;;;;15.25;14.05;;;;;;;29.56;71.54;100792.78;5071986;27;43211;-39
2021/08/29 01:42:25;;;;;;;16.90;15.18;;;;;;;29.57;71.80;100797.97;5088124;27;70238;-38
2021/08/29 01:44:57;;;;;;;16.38;14.88;;;;;;;29.60;72.08;100799.44;5065181;28;65521;-39
2021/08/29 01:47:28;;;;;;;17.00;15.27;;;;;;;29.61;72.07;100801.09;5071621;27;70080;-38
2021/08/29 01:50:00;;;;;;;17.65;15.95;;;;;;;29.61;71.44;100801.09;5070510;27;66352;-40
2021/08/29 01:52:33;;;;;;;16.77;15.40;;;;;;;29.65;71.66;100805.06;5075042;27;70205;-39
2021/08/29 01:55:39;;;;;;;17.38;15.40;;;;;;;29.68;71.96;100811.91;5067314;27;66168;-39
2021/08/29 01:58:23;;;;;;;17.23;15.70;;;;;;;29.68;71.53;100801.94;5059153;27;69700;-41
2021/08/29 02:00:58;;;;;;;16.98;15.38;;;;;;;29.74;72.08;100814.59;5092482;27;65089;-41
2021/08/29 02:03:31;;;;;;;17.05;15.70;;;;;;;29.76;72.13;100820.63;5056542;27;69410;-39
2021/08/29 02:06:31;;;;;;;17.73;16.15;;;;;;;29.78;71.75;100817.69;5060455;27;65603;-40
2021/08/29 02:09:09;;;;;;;24.73;18.65;;;;;;;29.83;71.78;100817.88;5071658;27;70168;-40
2021/08/29 02:11:51;;;;;;;19.73;17.60;;;;;;;29.75;71.71;100805.41;5053822;27;65057;-39
2021/08/29 02:14:39;;;;;;;20.17;18.00;;;;;;;29.83;71.42;100815.16;5068685;27;70633;-39
2021/08/29 02:17:15;;;;;;;22.80;18.88;;;;;;;29.86;71.82;100811.22;5054631;28;66587;-39
2021/08/29 02:19:49;;;;;;;22.63;19.85;;;;;;;29.57;71.48;100756.63;5077292;27;70106;-39
2021/08/29 02:22:22;;;;;;;24.40;21.58;;;;;;;29.81;71.54;100801.88;5072507;27;66134;-38
2021/08/29 02:24:54;;;;;;;28.77;25.88;;;;;;;29.79;70.61;100798.56;5073025;27;70197;-39
2021/08/29 02:27:25;;;;;;;29.27;26.33;;;;;;;29.78;70.86;100802.31;5062850;27;66175;-38
2021/08/29 02:29:58;;;;;;;28.15;24.92;;;;;;;29.78;72.11;100794.19;5059176;27;69752;-40
2021/08/29 02:32:30;;;;;;;26.60;23.73;;;;;;;29.85;72.07;100796.88;5061859;28;66088;-39
2021/08/29 02:35:02;;;;;;;26.08;23.38;;;;;;;29.86;72.52;100792.28;5072781;27;69101;-39
2021/08/29 02:37:44;;;;;;;25.63;23.17;;;;;;;29.91;72.58;100790.59;5073394;27;66228;-39
2021/08/29 02:40:17;;;;;;;26.60;22.63;;;;;;;29.90;72.26;100778.13;5059858;27;69817;-38
2021/08/29 02:42:50;;;;;;;28.77;24.25;;;;;;;30.03;72.67;100777.19;5070418;27;66328;-39
2021/08/29 02:45:21;;;;;;;28.05;25.05;;;;;;;30.03;71.84;100771.78;5034618;28;69955;-40
2021/08/29 02:47:53;;;;;;;27.60;23.77;;;;;;;30.04;72.18;100770.75;5076234;27;65494;-38
2021/08/29 02:50:33;;;;;;;26.48;23.63;;;;;;;29.99;72.32;100759.75;5076995;27;69288;-38
2021/08/29 02:53:06;;;;;;;30.75;23.85;;;;;;;30.11;72.05;100768.84;5076807;27;65422;-37
2021/08/29 02:55:40;;;;;;;29.75;24.77;;;;;;;29.76;71.19;100711.66;5069633;27;69400;-38
2021/08/29 02:58:12;;;;;;;29.50;25.08;;;;;;;30.10;70.35;100759.06;5073552;27;66126;-38
2021/08/29 03:01:01;;;;;;;28.75;21.95;;;;;;;30.08;69.43;100750.34;5079970;27;69355;-37
2021/08/29 03:03:53;;;;;;;24.58;21.95;;;;;;;30.07;69.15;100745.97;5076063;27;65445;-43
2021/08/29 03:06:26;;;;;;;26.10;23.00;;;;;;;30.05;69.26;100739.94;5073963;27;70403;-43
2021/08/29 03:08:58;;;;;;;30.52;18.52;;;;;;;30.11;69.36;100744.47;5066274;27;66853;-42
2021/08/29 03:11:29;;;;;;;24.15;21.17;;;;;;;30.15;69.11;100753.84;5070607;27;69684;-43
2021/08/29 03:14:01;;;;;;;25.50;21.70;;;;;;;30.16;70.25;100755.47;5070977;28;66781;-43
2021/08/29 03:16:36;;;;;;;27.70;22.73;;;;;;;30.15;71.75;100758.44;5064515;27;70194;-43
2021/08/29 03:19:31;;;;;;;25.33;22.63;;;;;;;30.22;71.67;100776.28;5075939;27;66491;-42
2021/08/29 03:22:22;;;;;;;27.30;22.52;;;;;;;30.22;71.27;100781.69;5072305;27;69804;-43
2021/08/29 03:24:55;;;;;;;27.88;22.42;;;;;;;30.25;71.19;100780.44;5069376;27;66583;-44
2021/08/29 03:27:27;;;;;;;39.83;23.38;;;;;;;30.25;71.25;100775.84;5066025;27;70187;-43
2021/08/29 03:29:58;;;;;;;26.05;22.55;;;;;;;30.27;71.54;100773.75;5075072;27;65932;-43
2021/08/29 03:32:29;;;;;;;29.50;22.23;;;;;;;30.31;70.80;100768.72;5077563;27;70150;-43
2021/08/29 03:35:02;;;;;;;28.15;23.67;;;;;;;30.31;71.64;100766.00;5075457;27;66282;-43
2021/08/29 03:37:41;;;;;;;24.63;21.80;;;;;;;30.33;71.21;100760.41;5066137;27;70226;-43
2021/08/29 03:40:14;;;;;;;25.98;23.17;;;;;;;30.36;70.01;100752.66;5070881;27;65946;-42
2021/08/29 03:42:47;;;;;;;21.93;19.70;;;;;;;30.36;69.61;100754.53;5073448;27;70258;-43
2021/08/29 03:45:18;;;;;;;23.00;20.60;;;;;;;30.38;68.75;100741.63;5070421;27;66072;-43
2021/08/29 03:47:50;;;;;;;24.20;19.73;;;;;;;30.39;69.27;100743.28;5059198;28;68698;-43
2021/08/29 03:50:23;;;;;;;22.38;19.13;;;;;;;30.35;69.71;100736.66;5083246;27;66396;-43
2021/08/29 03:52:56;;;;;;;20.60;18.40;;;;;;;30.03;70.23;100677.13;5078846;27;70365;-44
2021/08/29 03:55:49;;;;;;;22.23;18.27;;;;;;;30.40;70.29;100731.41;5060395;28;66218;-43
2021/08/29 03:58:20;;;;;;;20.37;18.43;;;;;;;30.44;70.50;100743.44;5078732;27;70134;-43
2021/08/29 04:00:51;;;;;;;26.15;17.60;;;;;;;30.38;71.15;100730.81;5077391;27;66109;-44
2021/08/29 04:03:24;;;;;;;21.27;16.50;;;;;;;30.46;70.58;100741.34;5080662;27;69200;-42
2021/08/29 04:06:01;;;;;;;22.08;17.80;;;;;;;30.42;70.51;100721.19;5079760;27;66094;-43
2021/08/29 04:08:43;;;;;;;;;;;;;;;30.28;71.60;100736.69;5069956;27;69222;-43
2021/08/29 04:11:15;;;;;;;18.60;16.73;;;;;;;30.47;70.58;100729.47;5053752;27;65493;-44
2021/08/29 04:13:46;;;;;;;17.70;15.93;;;;;;;30.55;70.51;100740.03;5067575;27;69612;-43
2021/08/29 04:16:34;;;;;;;20.42;17.88;;;;;;;30.60;70.89;100734.78;5069685;27;65629;-43
2021/08/29 04:19:37;;;;;;;42.33;24.67;;;;;;;30.60;70.94;100723.13;5068187;27;69486;-48
2021/08/29 04:22:09;;;;;;;57.92;26.80;;;;;;;30.63;71.63;100728.91;5069424;27;66401;-43
2021/08/29 04:24:42;;;;;;;59.03;27.40;;;;;;;30.66;71.10;100725.75;5051721;28;69615;-43
2021/08/29 04:27:13;;;;;;;62.63;27.80;;;;;;;30.62;71.67;100718.28;5073824;27;66923;-44
2021/08/29 04:29:50;;;;;;;58.92;27.90;;;;;;;30.70;71.87;100729.69;5044674;28;69223;-43
2021/08/29 04:32:21;;;;;;;57.03;27.63;;;;;;;30.70;71.57;100713.44;5087064;27;65511;-44
2021/08/29 04:34:52;;;;;;;58.05;27.23;;;;;;;30.72;71.36;100710.50;5068816;27;70053;-43
2021/08/29 04:37:30;;;;;;;54.58;26.38;;;;;;;30.75;71.21;100703.81;5047409;27;66158;-42
2021/08/29 04:40:11;;;;;;;62.65;27.58;;;;;;;30.78;71.36;100711.47;5069820;27;70063;-43
2021/08/29 04:42:50;;;;;;;49.35;24.38;;;;;;;30.76;72.45;100703.59;5063494;27;65653;-43
2021/08/29 04:45:23;;;;;;;55.60;25.83;;;;;;;30.50;72.26;100651.34;5064790;27;70140;-44
2021/08/29 04:47:58;;;;;;;43.50;21.52;;;;;;;30.87;71.02;100702.03;5068876;27;65964;-43
2021/08/29 04:50:32;;;;;;;31.50;17.07;;;;;;;30.90;69.16;100704.31;5067841;27;69574;-43
2021/08/29 04:53:06;;;;;;;19.15;13.82;;;;;;;30.92;69.09;100704.91;5074865;27;65547;-44
2021/08/29 04:55:37;;;;;;;12.60;11.23;;;;;;;31.00;67.13;100711.91;5082585;27;70041;-43
2021/08/29 04:58:08;;;;;;;9.23;8.52;;;;;;;31.01;66.63;100697.31;5082279;27;66220;-45
2021/08/29 05:00:39;;;;;;;13.67;10.37;;;;;;;31.02;67.49;100693.56;5053012;28;70154;-43
2021/08/29 05:03:10;;;;;;;22.65;11.82;;;;;;;31.02;68.13;100682.72;5055122;27;65622;-45
2021/08/29 05:05:42;;;;;;;17.67;12.20;;;;;;;30.89;68.63;100662.03;5048345;27;70134;-44
2021/08/29 05:08:14;;;;;;;18.50;11.82;;;;;;;31.08;68.85;100682.63;5059095;27;66287;-43
2021/08/29 05:10:45;;;;;;;19.77;13.23;;;;;;;30.97;69.10;100664.44;5075329;27;70210;-44
2021/08/29 05:13:17;;;;;;;18.00;12.27;;;;;;;31.10;69.56;100685.97;5053571;27;65718;-51
2021/08/29 05:15:49;;;;;;;21.67;13.23;;;;;;;31.13;69.42;100673.84;5087016;27;70454;-42
2021/08/29 05:18:20;;;;;;;14.37;12.40;;;;;;;31.12;69.47;100673.03;5076179;27;65998;-43
2021/08/29 05:21:07;;;;;;;18.05;12.15;;;;;;;31.15;70.02;100664.44;5071416;27;70535;-44
2021/08/29 05:24:10;;;;;;;17.88;11.80;;;;;;;31.23;69.70;100654.31;5054187;27;66015;-43
2021/08/29 05:26:50;;;;;;;16.15;12.20;;;;;;;31.21;69.93;100654.56;5051734;27;70019;-45
2021/08/29 05:29:21;;;;;;;13.95;11.80;;;;;;;31.25;70.07;100649.50;5052581;27;66146;-44
2021/08/29 05:31:56;;;;;;;14.50;11.15;;;;;;;31.28;70.02;100638.22;5065084;27;69963;-43
2021/08/29 05:34:38;;;;;;;12.40;10.43;;;;;;;31.30;70.06;100636.94;5066202;27;66754;-42
2021/08/29 05:37:12;;;;;;;17.85;10.85;;;;;;;31.28;70.09;100627.38;5057472;27;69470;-43
2021/08/29 05:40:22;;;;;;;12.10;10.75;;;;;;;31.33;70.47;100627.50;5057549;27;66826;-44
2021/08/29 05:43:12;;;;;;;11.90;10.50;;;;;;;31.28;69.90;100605.69;5079999;27;70660;-44
2021/08/29 05:45:44;;;;;;;20.52;10.63;;;;;;;31.36;70.73;100610.81;5057025;27;64836;-43
2021/08/29 05:48:15;;;;;;;15.07;10.10;;;;;;;31.39;69.97;100615.78;5073895;27;69171;-42
2021/08/29 05:50:47;;;;;;;18.35;9.63;;;;;;;31.26;68.70;100591.53;5075033;27;65251;-43
2021/08/29 05:53:18;;;;;;;9.82;9.02;;;;;;;31.22;67.37;100596.59;5051495;27;70023;-43
2021/08/29 05:55:55;;;;;;;11.82;9.27;;;;;;;31.15;66.85;100585.84;5080617;27;66470;-42
2021/08/29 05:58:26;;;;;;;14.75;10.70;;;;;;;31.14;64.89;100576.06;5070166;27;69941;-43
2021/08/29 06:01:00;;;;;;;16.65;10.88;;;;;;;31.01;63.94;100567.28;5065029;27;65679;-43
2021/08/29 06:03:37;;;;;;;31.52;10.25;;;;;;;30.98;63.61;100574.00;5066189;27;69304;-42
2021/08/29 06:06:14;;;;;;;16.70;8.30;;;;;;;30.86;63.53;100559.56;5041951;27;66009;-43
2021/08/29 06:08:50;;;;;;;11.45;8.43;;;;;;;30.65;62.70;100556.25;5069785;27;69154;-43
2021/08/29 06:11:22;;;;;;;14.32;8.30;;;;;;;30.64;62.47;100556.47;5078810;27;66091;-43
2021/08/29 06:13:53;;;;;;;13.95;7.93;;;;;;;30.59;61.35;100550.91;5066153;27;69937;-43
2021/08/29 06:16:24;;;;;;;10.20;7.32;;;;;;;30.54;60.15;100545.38;5074214;27;66031;-43
2021/08/29 06:18:55;;;;;;;10.57;7.68;;;;;;;30.47;59.89;100540.00;5070518;27;70142;-43
2021/08/29 06:21:27;;;;;;;7.55;6.85;;;;;;;30.41;58.65;100533.63;5064580;27;66448;-42
2021/08/29 06:23:58;;;;;;;15.23;6.95;;;;;;;30.37;58.16;100523.47;5067959;27;70952;-43
2021/08/29 06:26:47;;;;;;;9.30;6.78;;;;;;;30.34;57.36;100515.78;5073860;27;66079;-42
2021/08/29 06:29:45;;;;;;;9.63;6.30;;;;;;;30.26;55.73;100506.94;5053141;27;69926;-43
2021/08/29 06:32:31;;;;;;;6.68;6.18;;;;;;;30.25;55.81;100493.63;5073817;27;66443;-43
2021/08/29 06:35:07;;;;;;;8.77;5.82;;;;;;;30.24;54.90;100483.88;5075867;27;70032;-43
2021/08/29 06:37:53;;;;;;;7.20;6.57;;;;;;;30.20;55.20;100491.59;5067861;27;66487;-44
2021/08/29 06:40:24;;;;;;;6.83;6.43;;;;;;;29.94;55.69;100437.75;5069712;27;70340;-43
2021/08/29 06:42:55;;;;;;;10.40;6.20;;;;;;;30.18;55.27;100477.44;5064473;27;66265;-43
2021/08/29 06:46:02;;;;;;;6.75;6.15;;;;;;;30.13;54.24;100480.00;5068215;27;70043;-45
2021/08/29 06:48:51;;;;;;;10.05;6.20;;;;;;;30.13;53.14;100469.19;5076736;27;65945;-42
2021/08/29 06:51:40;;;;;;;13.70;6.95;;;;;;;30.12;53.78;100472.94;5070002;27;69275;-42
2021/08/29 06:54:14;;;;;;;5.85;5.55;;;;;;;30.09;52.74;100488.78;5065925;27;66474;-42
2021/08/29 06:57:25;;;;;;;9.43;5.72;;;;;;;29.99;51.77;100468.50;5066277;27;70030;-42
2021/08/29 06:59:56;;;;;;;6.70;6.18;;;;;;;30.00;51.42;100472.84;5067524;27;66348;-43
2021/08/29 07:02:29;;;;;;;5.90;5.40;;;;;;;30.04;50.95;100475.94;5053511;27;69363;-43
2021/08/29 07:05:00;;;;;;;6.90;5.35;;;;;;;29.98;50.67;100463.31;5070678;27;66513;-42
2021/08/29 07:07:32;;;;;;;4.87;4.40;;;;;;;30.02;50.57;100475.34;5069209;27;69235;-42
2021/08/29 07:10:04;;;;;;;6.18;5.57;;;;;;;30.03;49.43;100471.56;5073849;27;65981;-43
2021/08/29 07:12:55;;;;;;;5.05;4.60;;;;;;;30.01;50.24;100468.28;5038820;27;70117;-41
2021/08/29 07:15:32;;;;;;;5.10;4.70;;;;;;;30.00;49.63;100459.31;5078222;27;66519;-43
2021/08/29 07:18:06;;;;;;;5.15;4.75;;;;;;;29.95;48.42;100447.53;5090243;27;69986;-41
2021/08/29 07:21:09;;;;;;;5.93;4.72;;;;;;;29.94;47.85;100445.88;5049220;27;65807;-43
2021/08/29 07:23:58;;;;;;;4.03;3.72;;;;;;;29.91;48.92;100439.03;5074394;27;69772;-43
2021/08/29 07:26:59;;;;;;;4.47;4.15;;;;;;;29.88;48.43;100438.66;5058968;27;65563;-43
2021/08/29 07:30:05;;;;;;;4.55;4.25;;;;;;;29.97;47.54;100440.84;5051428;28;69936;-43
2021/08/29 07:32:59;;;;;;;3.80;3.45;;;;;;;30.01;47.99;100433.13;5073005;27;66396;-43
2021/08/29 07:35:30;;;;;;;5.00;4.70;;;;;;;30.01;46.67;100427.72;5045393;27;70058;-43
2021/08/29 07:38:20;;;;;;;4.07;3.88;;;;;;;30.04;46.41;100413.75;5070212;27;65170;-43
2021/08/29 07:40:51;;;;;;;4.63;4.13;;;;;;;29.94;46.35;100403.44;5069274;27;70277;-44
2021/08/29 07:43:24;;;;;;;3.95;3.65;;;;;;;30.07;45.81;100421.41;5066465;27;66303;-43
2021/08/29 07:45:57;;;;;;;4.03;3.72;;;;;;;30.08;46.54;100423.03;5050314;27;69171;-43
2021/08/29 07:48:28;;;;;;;4.40;4.10;;;;;;;30.03;45.79;100403.94;5052066;28;66178;-43
2021/08/29 07:50:59;;;;;;;4.33;4.03;;;;;;;30.04;46.02;100411.03;5062657;27;69490;-43
2021/08/29 07:53:41;;;;;;;13.82;3.60;;;;;;;30.05;45.99;100405.38;5060153;27;65292;-43
2021/08/29 07:56:32;;;;;;;5.20;3.20;;;;;;;30.03;45.39;100403.94;5068421;27;70375;-42
2021/08/29 07:59:04;;;;;;;3.60;3.40;;;;;;;30.06;45.83;100398.09;5050536;27;66014;-43
2021/08/29 08:01:39;;;;;;;5.13;3.40;;;;;;;30.07;45.21;100394.34;5063923;27;69989;-44
2021/08/29 08:04:45;;;;;;;6.90;3.10;;;;;;;30.03;45.60;100366.09;5064901;27;65957;-42
2021/08/29 08:07:45;;;;;;;3.28;3.08;;;;;;;30.00;45.07;100356.53;5057922;27;69133;-44
2021/08/29 08:10:39;;;;;;;3.45;3.25;;;;;;;30.09;44.80;100365.22;5064070;27;66123;-43
2021/08/29 08:13:21;;;;;;;3.67;3.38;;;;;;;30.05;45.20;100350.47;5066975;27;69184;-42
2021/08/29 08:15:53;;;;;;;3.35;3.15;;;;;;;30.11;44.26;100362.25;5065833;27;66222;-43
2021/08/29 08:18:26;;;;;;;3.13;2.92;;;;;;;30.08;44.40;100363.53;5052714;28;70081;-43
2021/08/29 08:20:57;;;;;;;;;;;;;;;29.81;44.00;100369.28;5080976;27;66257;-43
2021/08/29 08:23:57;;;;;;;3.15;2.95;;;;;;;30.05;44.02;100369.41;5046068;27;69297;-43
2021/08/29 08:26:28;;;;;;;3.03;2.77;;;;;;;30.03;44.89;100366.94;5066520;27;66542;-43
2021/08/29 08:29:17;;;;;;;2.92;2.72;;;;;;;29.98;44.23;100363.25;5060201;27;69393;-47
2021/08/29 08:32:07;;;;;;;3.58;3.25;;;;;;;29.94;44.22;100353.94;5071560;27;66706;-43
2021/08/29 08:35:02;;;;;;;4.82;3.58;;;;;;;30.05;46.80;100374.81;5060665;27;70303;-42
2021/08/29 08:37:53;;;;;;;4.93;3.50;;;;;;;30.05;46.48;100372.09;5062537;27;65854;-43
2021/08/29 08:40:56;;;;;;;14.63;3.67;;;;;;;30.02;48.73;100369.84;5063379;27;70228;-42
2021/08/29 08:43:59;;;;;;;13.23;4.07;;;;;;;30.06;48.64;100379.16;5054130;27;66290;-42
2021/08/29 08:46:51;;;;;;;20.85;3.05;;;;;;;30.06;47.93;100382.72;5069539;27;69529;-42
2021/08/29 08:49:43;;;;;;;16.90;3.80;;;;;;;30.07;47.39;100394.34;5069744;27;65555;-43
2021/08/29 08:52:33;;;;;;;8.85;3.33;;;;;;;30.04;48.58;100405.63;5055371;27;69929;-42
2021/08/29 08:55:24;;;;;;;7.30;3.30;;;;;;;30.05;49.44;100407.25;5067038;27;66459;-43
2021/08/29 08:58:16;;;;;;;4.90;3.20;;;;;;;29.97;48.51;100399.44;5066325;27;69830;-44
2021/08/29 09:01:08;;;;;;;4.75;3.95;;;;;;;30.02;48.27;100410.44;5069425;27;66209;-44
2021/08/29 09:03:48;;;;;;;8.05;3.85;;;;;;;30.02;47.67;100413.13;5074127;27;70331;-43
2021/08/29 09:06:32;;;;;;;;;;;;;;;29.72;51.32;100424.66;5077935;27;65524;-43
2021/08/29 09:09:04;;;;;;;6.05;3.78;;;;;;;30.13;56.08;100420.47;5068887;27;70749;-44
2021/08/29 09:11:46;;;;;;;11.02;4.25;;;;;;;30.36;58.69;100435.22;5068606;27;66382;-42
2021/08/29 09:14:17;;;;;;;12.52;5.72;;;;;;;30.50;59.86;100426.69;5073743;27;68870;-42
2021/08/29 09:16:51;;;;;;;6.35;4.93;;;;;;;30.71;60.57;100424.56;5068331;27;65124;-43
2021/08/29 09:19:28;;;;;;;5.30;4.90;;;;;;;30.86;61.27;100429.56;5073186;27;69741;-41
2021/08/29 09:21:59;;;;;;;6.03;4.22;;;;;;;30.95;61.99;100433.59;5061838;27;66674;-42
2021/08/29 09:24:31;;;;;;;6.15;5.00;;;;;;;31.06;62.59;100434.69;5070661;27;69577;-42
2021/08/29 09:27:24;;;;;;;5.03;4.30;;;;;;;31.19;63.20;100442.63;5066683;27;66657;-42
2021/08/29 09:30:23;;;;;;;5.32;4.93;;;;;;;31.22;63.11;100433.19;5053353;27;70537;-41
2021/08/29 09:33:01;;;;;;;10.65;5.30;;;;;;;31.32;64.19;100436.97;5055784;27;66401;-42
2021/08/29 09:35:34;;;;;;;5.72;5.03;;;;;;;31.41;63.52;100442.91;5067831;27;69782;-41
2021/08/29 09:38:42;;;;;;;4.95;4.55;;;;;;;31.36;64.29;100426.53;5069200;27;66438;-44
2021/08/29 09:41:25;;;;;;;6.13;5.45;;;;;;;31.52;64.73;100428.53;5082455;27;69603;-42
2021/08/29 09:44:22;;;;;;;7.63;4.97;;;;;;;31.59;63.97;100410.28;5035280;28;66129;-42
2021/08/29 09:47:12;;;;;;;5.55;5.15;;;;;;;31.57;65.10;100406.16;5066797;27;70236;-42
2021/08/29 09:50:06;;;;;;;4.93;4.63;;;;;;;31.61;64.76;100404.59;5065142;27;65311;-42
2021/08/29 09:52:46;;;;;;;4.65;4.22;;;;;;;31.61;64.57;100400.00;5070851;27;70319;-43
2021/08/29 09:55:31;;;;;;;5.85;5.35;;;;;;;31.61;64.95;100400.00;5051803;27;65370;-43
2021/08/29 09:58:27;;;;;;;5.03;4.72;;;;;;;31.64;65.55;100403.31;5069460;27;70753;-42
2021/08/29 10:01:17;;;;;;;6.25;5.82;;;;;;;31.66;65.13;100412.03;5058642;27;65454;-42
2021/08/29 10:04:20;;;;;;;7.05;6.57;;;;;;;31.59;65.68;100406.72;5073620;27;70425;-44
2021/08/29 10:07:18;;;;;;;8.13;7.55;;;;;;;31.54;65.40;100404.75;5070304;27;66703;-42
2021/08/29 10:09:49;;;;;;;9.65;7.07;;;;;;;31.46;65.58;100391.53;5083120;27;69320;-42
2021/08/29 10:12:25;;;;;;;8.07;7.22;;;;;;;31.66;65.54;100412.03;5065817;27;65462;-43
2021/08/29 10:14:56;;;;;;;7.70;7.20;;;;;;;31.70;65.62;100418.63;5064618;27;70481;-43
2021/08/29 10:17:40;;;;;;;9.25;8.50;;;;;;;31.75;64.55;100424.16;5065290;27;66201;-42
2021/08/29 10:20:33;;;;;;;10.32;7.55;;;;;;;31.82;64.38;100433.84;5046590;27;69998;-43
2021/08/29 10:23:28;;;;;;;8.23;7.40;;;;;;;31.88;64.22;100442.91;5040832;28;66531;-43
2021/08/29 10:26:02;;;;;;;8.48;6.97;;;;;;;31.88;64.79;100442.91;5074993;27;70625;-44
2021/08/29 10:29:09;;;;;;;8.25;7.55;;;;;;;31.92;65.35;100449.53;5058047;27;66319;-44
2021/08/29 10:32:37;;;;;;;9.57;7.93;;;;;;;31.85;65.46;100454.25;5059112;27;70391;-44
2021/08/29 10:35:27;;;;;;;9.90;7.65;;;;;;;31.92;66.39;100462.28;5075701;27;66097;-44
2021/08/29 10:38:08;;;;;;;10.18;8.23;;;;;;;31.94;66.96;100458.25;5069839;27;70490;-43
2021/08/29 10:40:58;;;;;;;11.93;8.85;;;;;;;32.01;66.68;100472.53;5074101;27;66103;-42
2021/08/29 10:43:35;;;;;;;13.13;9.50;;;;;;;31.99;68.08;100480.06;5068761;27;69484;-43
2021/08/29 10:46:46;;;;;;;11.13;9.95;;;;;;;31.93;68.53;100480.19;5028390;28;66616;-43
2021/08/29 10:49:36;;;;;;;15.30;9.93;;;;;;;31.89;68.79;100476.28;5031554;28;69286;-42
2021/08/29 10:52:07;;;;;;;16.13;9.67;;;;;;;31.96;69.43;100494.13;5050262;27;66952;-42
2021/08/29 10:54:53;;;;;;;11.18;8.90;;;;;;;31.94;69.14;100493.53;5063469;27;69777;-44
2021/08/29 10:57:30;;;;;;;16.10;8.48;;;;;;;32.02;67.51;100504.03;5071425;27;66543;-44
2021/08/29 11:00:28;;;;;;;15.00;8.63;;;;;;;32.00;67.77;100506.13;5071131;27;69498;-42
2021/08/29 11:03:27;;;;;;;9.35;8.40;;;;;;;31.94;67.83;100496.25;5074268;27;65312;-44
2021/08/29 11:06:49;;;;;;;17.00;9.07;;;;;;;31.98;67.56;100494.72;5065322;27;70169;-42
2021/08/29 11:09:41;;;;;;;9.13;7.93;;;;;;;32.04;67.19;100491.06;5068012;27;66478;-43
2021/08/29 11:12:13;;;;;;;10.82;7.60;;;;;;;32.11;66.66;100500.94;5062468;27;70526;-42
2021/08/29 11:14:53;;;;;;;10.60;7.93;;;;;;;32.15;66.76;100507.53;5087844;27;65536;-43
2021/08/29 11:17:32;;;;;;;9.57;8.73;;;;;;;32.14;66.65;100517.56;5071668;27;69730;-42
2021/08/29 11:20:15;;;;;;;9.02;8.23;;;;;;;32.04;66.11;100507.31;5071778;27;66674;-42
2021/08/29 11:23:42;;;;;;;9.80;8.98;;;;;;;32.04;66.88;100534.47;5059608;27;70152;-42
2021/08/29 11:26:33;;;;;;;8.53;7.83;;;;;;;32.03;66.64;100523.84;5035916;28;66525;-43
2021/08/29 11:29:56;;;;;;;10.23;9.15;;;;;;;32.01;66.96;100543.06;5067776;27;69330;-43
2021/08/29 11:32:46;;;;;;;8.27;7.60;;;;;;;31.85;67.66;100513.09;5067867;27;66589;-42
2021/08/29 11:35:23;;;;;;;9.23;8.30;;;;;;;32.04;68.65;100553.44;5064908;27;70509;-41
2021/08/29 11:38:19;;;;;;;14.18;8.82;;;;;;;31.99;68.56;100547.91;5069841;27;66257;-43
2021/08/29 11:40:57;;;;;;;9.07;8.30;;;;;;;31.96;68.90;100542.94;5068756;27;69963;-42
2021/08/29 11:43:29;;;;;;;9.93;9.02;;;;;;;31.94;69.05;100541.53;5088326;27;66396;-43
2021/08/29 11:46:12;;;;;;;9.75;8.90;;;;;;;31.93;69.69;100543.44;5069214;27;70083;-42
2021/08/29 11:49:07;;;;;;;9.67;8.70;;;;;;;31.81;69.76;100534.41;5066483;27;64754;-42
2021/08/29 11:51:50;;;;;;;10.23;9.43;;;;;;;31.86;69.64;100548.09;5069911;27;70526;-43
2021/08/29 11:54:26;;;;;;;9.50;8.82;;;;;;;31.82;69.73;100541.50;5070235;27;65935;-42
2021/08/29 11:57:02;;;;;;;10.32;9.30;;;;;;;31.83;69.29;100538.53;5072107;27;70076;-43
2021/08/29 11:59:34;;;;;;;9.53;8.93;;;;;;;31.81;69.75;100539.84;5050429;27;65953;-42
2021/08/29 12:02:36;;;;;;;10.40;9.50;;;;;;;31.46;69.79;100499.97;5075434;27;70435;-42
2021/08/29 12:05:15;;;;;;;9.90;9.20;;;;;;;31.79;70.00;100542.78;5066481;27;65803;-42
2021/08/29 12:07:59;;;;;;;10.43;9.63;;;;;;;31.77;70.16;100552.22;5078963;27;69855;-42
2021/08/29 12:10:52;;;;;;;10.13;9.25;;;;;;;31.73;70.13;100542.88;5075806;27;66412;-43
2021/08/29 12:13:46;;;;;;;11.88;9.98;;;;;;;31.77;70.30;100561.19;5062806;27;70089;-43
2021/08/29 12:16:37;;;;;;;9.63;9.02;;;;;;;31.78;70.32;100578.28;5074836;27;65597;-42
2021/08/29 12:19:18;;;;;;;10.93;8.90;;;;;;;31.79;70.00;100596.22;5069036;27;70077;-42